sensor_id;sensor_type;location;lat;lon;timestamp;temperature;humidity
16384;DHT22;8301;51.440;6.610;2022-10-30T00:00:46;16.70;99.90
16384;DHT22;8301;51.440;6.610;2022-10-30T00:03:15;16.70;99.90
16384;DHT22;8301;51.440;6.610;2022-10-30T00:05:42;16.70;99.90
16384;DHT22;8301;51.440;6.610;2022-10-30T00:08:12;16.70;99.90
16384;DHT22;8301;51.440;6.610;2022-10-30T00:10:40;16.70;99.90
16384;DHT22;8301;51.440;6.610;2022-10-30T00:13:06;16.70;99.90
16384;DHT22;8301;51.440;6.610;2022-10-30T00:15:33;16.70;99.90
16384;DHT22;8301;51.440;6.610;2022-10-30T00:18:00;16.70;99.90
16384;DHT22;8301;51.440;6.610;2022-10-30T00:20:27;16.70;99.90
16384;DHT22;8301;51.440;6.610;2022-10-30T00:22:55;16.70;99.90
16384;DHT22;8301;51.440;6.610;2022-10-30T00:25:23;16.70;99.90
16384;DHT22;8301;51.440;6.610;2022-10-30T00:27:50;16.70;99.90
16384;DHT22;8301;51.440;6.610;2022-10-30T00:30:16;16.60;99.90
16384;DHT22;8301;51.440;6.610;2022-10-30T00:32:43;16.60;99.90
16384;DHT22;8301;51.440;6.610;2022-10-30T00:35:10;16.70;99.90
16384;DHT22;8301;51.440;6.610;2022-10-30T00:37:37;16.60;99.90
16384;DHT22;8301;51.440;6.610;2022-10-30T00:40:04;16.60;99.90
16384;DHT22;8301;51.440;6.610;2022-10-30T00:42:31;16.60;99.90
16384;DHT22;8301;51.440;6.610;2022-10-30T00:44:58;16.50;99.90
16384;DHT22;8301;51.440;6.610;2022-10-30T00:47:27;16.50;99.90
16384;DHT22;8301;51.440;6.610;2022-10-30T00:50:05;16.50;99.90
16384;DHT22;8301;51.440;6.610;2022-10-30T00:52:33;16.50;99.90
16384;DHT22;8301;51.440;6.610;2022-10-30T00:55:14;16.50;99.90
16384;DHT22;8301;51.440;6.610;2022-10-30T00:57:37;16.40;99.90
16384;DHT22;8301;51.440;6.610;2022-10-30T01:00:06;16.40;99.90
16384;DHT22;8301;51.440;6.610;2022-10-30T01:02:34;16.40;99.90
16384;DHT22;8301;51.440;6.610;2022-10-30T01:05:00;16.30;99.90
16384;DHT22;8301;51.440;6.610;2022-10-30T01:07:28;16.30;99.90
16384;DHT22;8301;51.440;6.610;2022-10-30T01:09:56;16.30;99.90
16384;DHT22;8301;51.440;6.610;2022-10-30T01:12:23;16.30;99.90
16384;DHT22;8301;51.440;6.610;2022-10-30T01:14:51;16.20;99.90
16384;DHT22;8301;51.440;6.610;2022-10-30T01:17:23;16.20;99.90
16384;DHT22;8301;51.440;6.610;2022-10-30T01:22:23;16.10;99.90
16384;DHT22;8301;51.440;6.610;2022-10-30T01:24:57;16.00;99.90
16384;DHT22;8301;51.440;6.610;2022-10-30T01:27:25;16.00;99.90
16384;DHT22;8301;51.440;6.610;2022-10-30T01:30:07;15.90;99.90
16384;DHT22;8301;51.440;6.610;2022-10-30T01:32:36;15.90;99.90
16384;DHT22;8301;51.440;6.610;2022-10-30T01:35:08;15.80;99.90
16384;DHT22;8301;51.440;6.610;2022-10-30T01:37:38;15.80;99.90
16384;DHT22;8301;51.440;6.610;2022-10-30T01:40:07;15.70;99.90
16384;DHT22;8301;51.440;6.610;2022-10-30T01:45:09;15.60;99.90
16384;DHT22;8301;51.440;6.610;2022-10-30T01:50:09;15.40;99.90
16384;DHT22;8301;51.440;6.610;2022-10-30T01:52:46;15.40;99.90
16384;DHT22;8301;51.440;6.610;2022-10-30T01:57:48;15.20;99.90
16384;DHT22;8301;51.440;6.610;2022-10-30T02:00:11;15.10;99.90
16384;DHT22;8301;51.440;6.610;2022-10-30T02:02:39;15.00;99.90
16384;DHT22;8301;51.440;6.610;2022-10-30T02:05:07;15.00;99.90
16384;DHT22;8301;51.440;6.610;2022-10-30T02:07:35;14.70;99.90
16384;DHT22;8301;51.440;6.610;2022-10-30T02:10:02;14.50;99.90
16384;DHT22;8301;51.440;6.610;2022-10-30T02:12:29;14.50;99.90
16384;DHT22;8301;51.440;6.610;2022-10-30T02:14:57;14.50;99.90
16384;DHT22;8301;51.440;6.610;2022-10-30T02:17:24;14.40;99.90
16384;DHT22;8301;51.440;6.610;2022-10-30T02:19:52;14.30;99.90
16384;DHT22;8301;51.440;6.610;2022-10-30T02:22:19;14.30;99.90
16384;DHT22;8301;51.440;6.610;2022-10-30T02:24:46;14.30;99.90
16384;DHT22;8301;51.440;6.610;2022-10-30T02:27:13;14.20;99.90
16384;DHT22;8301;51.440;6.610;2022-10-30T02:29:40;14.10;99.90
16384;DHT22;8301;51.440;6.610;2022-10-30T02:32:08;14.10;99.90
16384;DHT22;8301;51.440;6.610;2022-10-30T02:34:35;14.10;99.90
16384;DHT22;8301;51.440;6.610;2022-10-30T02:37:02;14.20;99.90
16384;DHT22;8301;51.440;6.610;2022-10-30T02:39:29;14.10;99.90
16384;DHT22;8301;51.440;6.610;2022-10-30T02:41:56;14.00;99.90
16384;DHT22;8301;51.440;6.610;2022-10-30T02:44:22;14.00;99.90
16384;DHT22;8301;51.440;6.610;2022-10-30T02:46:49;13.90;99.90
16384;DHT22;8301;51.440;6.610;2022-10-30T02:49:17;13.90;99.90
16384;DHT22;8301;51.440;6.610;2022-10-30T02:51:44;13.80;99.90
16384;DHT22;8301;51.440;6.610;2022-10-30T02:54:13;13.80;99.90
16384;DHT22;8301;51.440;6.610;2022-10-30T02:56:40;13.80;99.90
16384;DHT22;8301;51.440;6.610;2022-10-30T02:59:07;13.80;99.90
16384;DHT22;8301;51.440;6.610;2022-10-30T03:01:34;13.80;99.90
16384;DHT22;8301;51.440;6.610;2022-10-30T03:04:08;13.80;99.90
16384;DHT22;8301;51.440;6.610;2022-10-30T03:06:35;13.70;99.90
16384;DHT22;8301;51.440;6.610;2022-10-30T03:09:02;13.80;99.90
16384;DHT22;8301;51.440;6.610;2022-10-30T03:13:38;13.80;99.90
16384;DHT22;8301;51.440;6.610;2022-10-30T03:16:13;13.70;99.90
16384;DHT22;8301;51.440;6.610;2022-10-30T03:18:36;13.70;99.90
16384;DHT22;8301;51.440;6.610;2022-10-30T03:21:04;13.70;99.90
16384;DHT22;8301;51.440;6.610;2022-10-30T03:23:35;13.60;99.90
16384;DHT22;8301;51.440;6.610;2022-10-30T03:26:02;13.60;99.90
16384;DHT22;8301;51.440;6.610;2022-10-30T03:28:30;13.50;99.90
16384;DHT22;8301;51.440;6.610;2022-10-30T03:30:58;13.40;99.90
16384;DHT22;8301;51.440;6.610;2022-10-30T03:33:26;13.40;99.90
16384;DHT22;8301;51.440;6.610;2022-10-30T03:35:53;13.40;99.90
16384;DHT22;8301;51.440;6.610;2022-10-30T03:38:20;13.40;99.90
16384;DHT22;8301;51.440;6.610;2022-10-30T03:40:47;13.30;99.90
16384;DHT22;8301;51.440;6.610;2022-10-30T03:43:14;13.20;99.90
16384;DHT22;8301;51.440;6.610;2022-10-30T03:45:45;13.20;99.90
16384;DHT22;8301;51.440;6.610;2022-10-30T03:48:09;13.10;99.90
16384;DHT22;8301;51.440;6.610;2022-10-30T03:50:36;13.10;99.90
16384;DHT22;8301;51.440;6.610;2022-10-30T03:53:03;13.00;99.90
16384;DHT22;8301;51.440;6.610;2022-10-30T03:55:30;13.10;99.90
16384;DHT22;8301;51.440;6.610;2022-10-30T03:58:00;13.20;99.90
16384;DHT22;8301;51.440;6.610;2022-10-30T04:00:28;13.10;99.90
16384;DHT22;8301;51.440;6.610;2022-10-30T04:02:55;13.00;99.90
16384;DHT22;8301;51.440;6.610;2022-10-30T04:05:26;13.00;99.90
16384;DHT22;8301;51.440;6.610;2022-10-30T04:08:02;12.90;99.90
16384;DHT22;8301;51.440;6.610;2022-10-30T04:10:27;12.90;99.90
16384;DHT22;8301;51.440;6.610;2022-10-30T04:13:01;12.90;99.90
16384;DHT22;8301;51.440;6.610;2022-10-30T04:15:28;12.90;99.90
16384;DHT22;8301;51.440;6.610;2022-10-30T04:17:58;13.00;99.90
16384;DHT22;8301;51.440;6.610;2022-10-30T04:20:25;13.00;99.90
16384;DHT22;8301;51.440;6.610;2022-10-30T04:23:01;12.90;99.90
16384;DHT22;8301;51.440;6.610;2022-10-30T04:25:24;13.00;99.90
16384;DHT22;8301;51.440;6.610;2022-10-30T04:27:53;12.90;99.90
16384;DHT22;8301;51.440;6.610;2022-10-30T04:30:20;12.90;99.90
16384;DHT22;8301;51.440;6.610;2022-10-30T04:32:54;12.90;99.90
16384;DHT22;8301;51.440;6.610;2022-10-30T04:35:22;12.80;99.90
16384;DHT22;8301;51.440;6.610;2022-10-30T04:38:07;12.90;99.90
16384;DHT22;8301;51.440;6.610;2022-10-30T04:40:32;12.80;99.90
16384;DHT22;8301;51.440;6.610;2022-10-30T04:42:59;12.80;99.90
16384;DHT22;8301;51.440;6.610;2022-10-30T04:45:28;12.70;99.90
16384;DHT22;8301;51.440;6.610;2022-10-30T04:48:02;12.70;99.90
16384;DHT22;8301;51.440;6.610;2022-10-30T04:50:29;12.70;99.90
16384;DHT22;8301;51.440;6.610;2022-10-30T04:53:00;12.70;99.90
16384;DHT22;8301;51.440;6.610;2022-10-30T04:55:27;12.60;99.90
16384;DHT22;8301;51.440;6.610;2022-10-30T04:57:55;12.60;99.90
16384;DHT22;8301;51.440;6.610;2022-10-30T05:00:23;12.60;99.90
16384;DHT22;8301;51.440;6.610;2022-10-30T05:02:50;12.60;99.90
16384;DHT22;8301;51.440;6.610;2022-10-30T05:05:17;12.60;99.90
16384;DHT22;8301;51.440;6.610;2022-10-30T05:07:44;12.60;99.90
16384;DHT22;8301;51.440;6.610;2022-10-30T05:10:14;12.50;99.90
16384;DHT22;8301;51.440;6.610;2022-10-30T05:12:43;12.50;99.90
16384;DHT22;8301;51.440;6.610;2022-10-30T05:15:11;12.50;99.90
16384;DHT22;8301;51.440;6.610;2022-10-30T05:17:38;12.50;99.90
16384;DHT22;8301;51.440;6.610;2022-10-30T05:20:05;12.50;99.90
16384;DHT22;8301;51.440;6.610;2022-10-30T05:22:31;12.40;99.90
16384;DHT22;8301;51.440;6.610;2022-10-30T05:24:59;12.30;99.90
16384;DHT22;8301;51.440;6.610;2022-10-30T05:27:27;12.30;99.90
16384;DHT22;8301;51.440;6.610;2022-10-30T05:29:54;12.30;99.90
16384;DHT22;8301;51.440;6.610;2022-10-30T05:32:21;12.30;99.90
16384;DHT22;8301;51.440;6.610;2022-10-30T05:34:48;12.20;99.90
16384;DHT22;8301;51.440;6.610;2022-10-30T05:37:15;12.30;99.90
16384;DHT22;8301;51.440;6.610;2022-10-30T05:39:42;12.30;99.90
16384;DHT22;8301;51.440;6.610;2022-10-30T05:42:11;12.20;99.90
16384;DHT22;8301;51.440;6.610;2022-10-30T05:44:37;12.10;99.90
16384;DHT22;8301;51.440;6.610;2022-10-30T05:47:04;12.00;99.90
16384;DHT22;8301;51.440;6.610;2022-10-30T05:49:31;11.90;99.90
16384;DHT22;8301;51.440;6.610;2022-10-30T05:51:58;11.90;99.90
16384;DHT22;8301;51.440;6.610;2022-10-30T05:54:25;11.80;99.90
16384;DHT22;8301;51.440;6.610;2022-10-30T05:56:51;11.80;99.90
16384;DHT22;8301;51.440;6.610;2022-10-30T05:59:18;11.90;99.90
16384;DHT22;8301;51.440;6.610;2022-10-30T06:01:45;11.90;99.90
16384;DHT22;8301;51.440;6.610;2022-10-30T06:04:12;11.90;99.90
16384;DHT22;8301;51.440;6.610;2022-10-30T06:06:39;11.90;99.90
16384;DHT22;8301;51.440;6.610;2022-10-30T06:09:05;11.90;99.90
16384;DHT22;8301;51.440;6.610;2022-10-30T06:11:32;11.90;99.90
16384;DHT22;8301;51.440;6.610;2022-10-30T06:13:59;11.90;99.90
16384;DHT22;8301;51.440;6.610;2022-10-30T06:16:26;12.00;99.90
16384;DHT22;8301;51.440;6.610;2022-10-30T06:18:53;11.90;99.90
16384;DHT22;8301;51.440;6.610;2022-10-30T06:21:20;11.90;99.90
16384;DHT22;8301;51.440;6.610;2022-10-30T06:23:47;11.90;99.90
16384;DHT22;8301;51.440;6.610;2022-10-30T06:26:19;11.90;99.90
16384;DHT22;8301;51.440;6.610;2022-10-30T06:28:46;11.90;99.90
16384;DHT22;8301;51.440;6.610;2022-10-30T06:31:13;11.90;99.90
16384;DHT22;8301;51.440;6.610;2022-10-30T06:33:39;11.90;99.90
16384;DHT22;8301;51.440;6.610;2022-10-30T06:36:06;11.90;99.90
16384;DHT22;8301;51.440;6.610;2022-10-30T06:38:33;11.90;99.90
16384;DHT22;8301;51.440;6.610;2022-10-30T06:41:00;11.90;99.90
16384;DHT22;8301;51.440;6.610;2022-10-30T06:43:27;11.90;99.90
16384;DHT22;8301;51.440;6.610;2022-10-30T06:45:55;11.90;99.90
16384;DHT22;8301;51.440;6.610;2022-10-30T06:48:22;11.90;99.90
16384;DHT22;8301;51.440;6.610;2022-10-30T06:50:54;11.80;99.90
16384;DHT22;8301;51.440;6.610;2022-10-30T06:53:21;11.80;99.90
16384;DHT22;8301;51.440;6.610;2022-10-30T06:55:58;11.90;99.90
16384;DHT22;8301;51.440;6.610;2022-10-30T06:58:25;11.90;99.90
16384;DHT22;8301;51.440;6.610;2022-10-30T07:00:52;11.90;99.90
16384;DHT22;8301;51.440;6.610;2022-10-30T07:03:20;12.00;99.90
16384;DHT22;8301;51.440;6.610;2022-10-30T07:05:47;12.00;99.90
16384;DHT22;8301;51.440;6.610;2022-10-30T07:08:14;12.00;99.90
16384;DHT22;8301;51.440;6.610;2022-10-30T07:10:40;11.90;99.90
16384;DHT22;8301;51.440;6.610;2022-10-30T07:13:07;11.90;99.90
16384;DHT22;8301;51.440;6.610;2022-10-30T07:15:35;11.90;99.90
16384;DHT22;8301;51.440;6.610;2022-10-30T07:18:02;12.00;99.90
16384;DHT22;8301;51.440;6.610;2022-10-30T07:20:30;12.10;99.90
16384;DHT22;8301;51.440;6.610;2022-10-30T07:22:57;12.10;99.90
16384;DHT22;8301;51.440;6.610;2022-10-30T07:25:24;12.20;99.90
16384;DHT22;8301;51.440;6.610;2022-10-30T07:27:52;12.40;99.90
16384;DHT22;8301;51.440;6.610;2022-10-30T07:30:20;12.60;99.90
16384;DHT22;8301;51.440;6.610;2022-10-30T07:32:56;12.70;99.90
16384;DHT22;8301;51.440;6.610;2022-10-30T07:35:16;12.80;99.90
16384;DHT22;8301;51.440;6.610;2022-10-30T07:37:43;13.10;99.90
16384;DHT22;8301;51.440;6.610;2022-10-30T07:40:10;13.20;99.90
16384;DHT22;8301;51.440;6.610;2022-10-30T07:42:37;13.40;99.90
16384;DHT22;8301;51.440;6.610;2022-10-30T07:45:03;13.70;99.90
16384;DHT22;8301;51.440;6.610;2022-10-30T07:47:30;13.90;99.90
16384;DHT22;8301;51.440;6.610;2022-10-30T07:49:57;14.10;99.90
16384;DHT22;8301;51.440;6.610;2022-10-30T07:52:24;14.40;99.90
16384;DHT22;8301;51.440;6.610;2022-10-30T07:54:51;14.70;99.90
16384;DHT22;8301;51.440;6.610;2022-10-30T07:57:17;15.00;99.90
16384;DHT22;8301;51.440;6.610;2022-10-30T07:59:44;15.40;99.90
16384;DHT22;8301;51.440;6.610;2022-10-30T08:02:11;15.70;99.90
16384;DHT22;8301;51.440;6.610;2022-10-30T08:04:38;15.90;99.90
16384;DHT22;8301;51.440;6.610;2022-10-30T08:07:05;16.20;99.90
16384;DHT22;8301;51.440;6.610;2022-10-30T08:09:32;16.50;99.90
16384;DHT22;8301;51.440;6.610;2022-10-30T08:11:59;16.40;99.90
16384;DHT22;8301;51.440;6.610;2022-10-30T08:14:26;16.50;99.90
16384;DHT22;8301;51.440;6.610;2022-10-30T08:16:54;16.70;99.90
16384;DHT22;8301;51.440;6.610;2022-10-30T08:19:21;17.00;99.90
16384;DHT22;8301;51.440;6.610;2022-10-30T08:21:48;17.10;99.90
16384;DHT22;8301;51.440;6.610;2022-10-30T08:24:15;17.30;99.90
16384;DHT22;8301;51.440;6.610;2022-10-30T08:26:42;17.40;99.90
16384;DHT22;8301;51.440;6.610;2022-10-30T08:29:09;17.60;99.90
16384;DHT22;8301;51.440;6.610;2022-10-30T08:31:36;17.80;99.90
16384;DHT22;8301;51.440;6.610;2022-10-30T08:34:03;17.80;99.90
16384;DHT22;8301;51.440;6.610;2022-10-30T08:36:30;18.30;99.90
16384;DHT22;8301;51.440;6.610;2022-10-30T08:38:57;18.30;99.90
16384;DHT22;8301;51.440;6.610;2022-10-30T08:41:24;18.50;99.90
16384;DHT22;8301;51.440;6.610;2022-10-30T08:43:50;18.70;99.90
16384;DHT22;8301;51.440;6.610;2022-10-30T08:46:17;18.90;99.90
16384;DHT22;8301;51.440;6.610;2022-10-30T08:48:44;19.40;99.90
16384;DHT22;8301;51.440;6.610;2022-10-30T08:51:12;19.40;99.90
16384;DHT22;8301;51.440;6.610;2022-10-30T08:53:39;20.00;99.90
16384;DHT22;8301;51.440;6.610;2022-10-30T08:56:06;20.50;99.90
16384;DHT22;8301;51.440;6.610;2022-10-30T08:58:34;20.90;99.90
16384;DHT22;8301;51.440;6.610;2022-10-30T09:01:01;21.10;99.90
16384;DHT22;8301;51.440;6.610;2022-10-30T09:03:27;21.60;99.90
16384;DHT22;8301;51.440;6.610;2022-10-30T09:05:56;21.90;99.90
16384;DHT22;8301;51.440;6.610;2022-10-30T09:08:23;21.90;99.90
16384;DHT22;8301;51.440;6.610;2022-10-30T09:10:56;22.00;99.90
16384;DHT22;8301;51.440;6.610;2022-10-30T09:13:21;22.10;99.90
16384;DHT22;8301;51.440;6.610;2022-10-30T09:15:47;21.90;99.90
16384;DHT22;8301;51.440;6.610;2022-10-30T09:18:14;21.80;99.90
16384;DHT22;8301;51.440;6.610;2022-10-30T09:20:41;21.70;99.90
16384;DHT22;8301;51.440;6.610;2022-10-30T09:23:09;21.60;99.90
16384;DHT22;8301;51.440;6.610;2022-10-30T09:25:36;21.90;99.90
16384;DHT22;8301;51.440;6.610;2022-10-30T09:28:03;21.90;99.90
16384;DHT22;8301;51.440;6.610;2022-10-30T09:30:29;21.90;99.90
16384;DHT22;8301;51.440;6.610;2022-10-30T09:32:57;21.20;99.90
16384;DHT22;8301;51.440;6.610;2022-10-30T09:35:24;20.70;99.90
16384;DHT22;8301;51.440;6.610;2022-10-30T09:37:51;20.20;99.90
16384;DHT22;8301;51.440;6.610;2022-10-30T09:40:38;19.80;99.90
16384;DHT22;8301;51.440;6.610;2022-10-30T09:43:07;19.60;99.90
16384;DHT22;8301;51.440;6.610;2022-10-30T09:53:29;19.20;99.90
16384;DHT22;8301;51.440;6.610;2022-10-30T09:58:30;19.40;99.90
16384;DHT22;8301;51.440;6.610;2022-10-30T10:03:40;19.20;99.90
16384;DHT22;8301;51.440;6.610;2022-10-30T10:06:02;19.20;99.90
16384;DHT22;8301;51.440;6.610;2022-10-30T10:11:15;19.20;99.90
16384;DHT22;8301;51.440;6.610;2022-10-30T10:13:52;19.20;99.90
16384;DHT22;8301;51.440;6.610;2022-10-30T10:16:19;19.20;99.90
16384;DHT22;8301;51.440;6.610;2022-10-30T10:18:47;19.10;99.90
16384;DHT22;8301;51.440;6.610;2022-10-30T10:21:17;19.20;99.90
16384;DHT22;8301;51.440;6.610;2022-10-30T10:23:49;19.20;99.90
16384;DHT22;8301;51.440;6.610;2022-10-30T10:26:17;19.30;99.90
16384;DHT22;8301;51.440;6.610;2022-10-30T10:28:51;19.30;99.90
16384;DHT22;8301;51.440;6.610;2022-10-30T10:31:17;19.40;99.90
16384;DHT22;8301;51.440;6.610;2022-10-30T10:33:47;19.40;99.90
16384;DHT22;8301;51.440;6.610;2022-10-30T10:36:32;19.50;99.90
16384;DHT22;8301;51.440;6.610;2022-10-30T10:44:11;19.70;99.90
16384;DHT22;8301;51.440;6.610;2022-10-30T10:54:46;19.70;99.90
16384;DHT22;8301;51.440;6.610;2022-10-30T10:57:24;19.90;99.90
16384;DHT22;8301;51.440;6.610;2022-10-30T10:59:46;19.90;99.90
16384;DHT22;8301;51.440;6.610;2022-10-30T11:05:04;19.90;99.90
16384;DHT22;8301;51.440;6.610;2022-10-30T11:07:37;20.00;99.90
16384;DHT22;8301;51.440;6.610;2022-10-30T11:10:00;20.20;99.90
16384;DHT22;8301;51.440;6.610;2022-10-30T11:12:28;20.10;99.90
16384;DHT22;8301;51.440;6.610;2022-10-30T11:15:11;20.10;99.90
16384;DHT22;8301;51.440;6.610;2022-10-30T11:22:50;20.30;99.90
16384;DHT22;8301;51.440;6.610;2022-10-30T11:25:18;20.30;99.90
16384;DHT22;8301;51.440;6.610;2022-10-30T11:27:46;20.20;99.90
16384;DHT22;8301;51.440;6.610;2022-10-30T11:30:21;20.30;99.90
16384;DHT22;8301;51.440;6.610;2022-10-30T11:32:48;20.30;99.90
16384;DHT22;8301;51.440;6.610;2022-10-30T11:35:16;20.20;99.90
16384;DHT22;8301;51.440;6.610;2022-10-30T11:37:44;20.40;99.90
16384;DHT22;8301;51.440;6.610;2022-10-30T11:42:52;20.60;99.90
16384;DHT22;8301;51.440;6.610;2022-10-30T11:45:23;20.60;99.90
16384;DHT22;8301;51.440;6.610;2022-10-30T11:47:49;20.60;99.90
16384;DHT22;8301;51.440;6.610;2022-10-30T11:50:23;20.70;99.90
16384;DHT22;8301;51.440;6.610;2022-10-30T11:52:57;20.80;99.90
16384;DHT22;8301;51.440;6.610;2022-10-30T11:55:23;20.90;99.90
16384;DHT22;8301;51.440;6.610;2022-10-30T11:57:51;20.90;99.90
16384;DHT22;8301;51.440;6.610;2022-10-30T12:00:24;20.90;99.90
16384;DHT22;8301;51.440;6.610;2022-10-30T12:02:49;20.70;99.90
16384;DHT22;8301;51.440;6.610;2022-10-30T12:05:36;20.60;99.90
16384;DHT22;8301;51.440;6.610;2022-10-30T12:13:05;20.90;99.90
16384;DHT22;8301;51.440;6.610;2022-10-30T12:15:36;20.90;99.90
16384;DHT22;8301;51.440;6.610;2022-10-30T12:18:21;21.00;99.90
16384;DHT22;8301;51.440;6.610;2022-10-30T12:20:50;21.00;99.90
16384;DHT22;8301;51.440;6.610;2022-10-30T12:23:18;21.10;99.90
16384;DHT22;8301;51.440;6.610;2022-10-30T12:25:51;21.10;99.90
16384;DHT22;8301;51.440;6.610;2022-10-30T12:28:20;21.20;99.90
16384;DHT22;8301;51.440;6.610;2022-10-30T12:36:00;21.20;99.90
16384;DHT22;8301;51.440;6.610;2022-10-30T12:38:35;21.10;99.90
16384;DHT22;8301;51.440;6.610;2022-10-30T12:41:04;21.10;99.90
16384;DHT22;8301;51.440;6.610;2022-10-30T12:43:32;21.20;99.90
16384;DHT22;8301;51.440;6.610;2022-10-30T12:46:12;21.10;99.90
16384;DHT22;8301;51.440;6.610;2022-10-30T12:56:09;21.10;99.90
16384;DHT22;8301;51.440;6.610;2022-10-30T12:58:40;21.00;99.90
16384;DHT22;8301;51.440;6.610;2022-10-30T13:01:18;20.90;99.90
16384;DHT22;8301;51.440;6.610;2022-10-30T13:04:21;20.90;99.90
16384;DHT22;8301;51.440;6.610;2022-10-30T13:06:15;21.00;99.90
16384;DHT22;8301;51.440;6.610;2022-10-30T13:08:40;21.00;99.90
16384;DHT22;8301;51.440;6.610;2022-10-30T13:11:18;20.90;99.90
16384;DHT22;8301;51.440;6.610;2022-10-30T13:13:50;20.90;99.90
16384;DHT22;8301;51.440;6.610;2022-10-30T13:16:21;20.90;99.90
16384;DHT22;8301;51.440;6.610;2022-10-30T13:18:46;20.90;99.90
16384;DHT22;8301;51.440;6.610;2022-10-30T13:21:18;20.80;99.90
16384;DHT22;8301;51.440;6.610;2022-10-30T13:23:47;20.70;99.90
16384;DHT22;8301;51.440;6.610;2022-10-30T13:31:36;20.80;99.90
16384;DHT22;8301;51.440;6.610;2022-10-30T13:36:46;20.70;99.90
16384;DHT22;8301;51.440;6.610;2022-10-30T13:44:29;20.80;99.90
16384;DHT22;8301;51.440;6.610;2022-10-30T13:52:16;20.90;99.90
16384;DHT22;8301;51.440;6.610;2022-10-30T13:54:52;20.90;99.90
16384;DHT22;8301;51.440;6.610;2022-10-30T14:00:45;20.90;99.90
16384;DHT22;8301;51.440;6.610;2022-10-30T14:07:25;20.80;99.90
16384;DHT22;8301;51.440;6.610;2022-10-30T14:09:57;20.80;99.90
16384;DHT22;8301;51.440;6.610;2022-10-30T14:15:23;20.80;99.90
16384;DHT22;8301;51.440;6.610;2022-10-30T14:17:37;20.80;99.90
16384;DHT22;8301;51.440;6.610;2022-10-30T14:22:34;20.80;99.90
16384;DHT22;8301;51.440;6.610;2022-10-30T14:25:02;20.80;99.90
16384;DHT22;8301;51.440;6.610;2022-10-30T14:27:31;20.80;99.90
16384;DHT22;8301;51.440;6.610;2022-10-30T14:29:58;20.70;99.90
16384;DHT22;8301;51.440;6.610;2022-10-30T14:39:56;20.50;99.90
16384;DHT22;8301;51.440;6.610;2022-10-30T14:42:39;20.40;99.90
16384;DHT22;8301;51.440;6.610;2022-10-30T14:45:24;20.40;99.90
16384;DHT22;8301;51.440;6.610;2022-10-30T14:50:32;20.30;99.90
16384;DHT22;8301;51.440;6.610;2022-10-30T14:55:30;20.30;99.90
16384;DHT22;8301;51.440;6.610;2022-10-30T15:03:04;20.10;99.90
16384;DHT22;8301;51.440;6.610;2022-10-30T15:08:21;20.00;99.90
16384;DHT22;8301;51.440;6.610;2022-10-30T15:10:50;19.90;99.90
16384;DHT22;8301;51.440;6.610;2022-10-30T15:13:23;19.80;99.90
16384;DHT22;8301;51.440;6.610;2022-10-30T15:16:06;19.70;99.90
16384;DHT22;8301;51.440;6.610;2022-10-30T15:18:34;19.60;99.90
16384;DHT22;8301;51.440;6.610;2022-10-30T15:21:03;19.60;99.90
16384;DHT22;8301;51.440;6.610;2022-10-30T15:23:30;19.50;99.90
16384;DHT22;8301;51.440;6.610;2022-10-30T15:25:59;19.40;99.90
16384;DHT22;8301;51.440;6.610;2022-10-30T15:28:27;19.30;99.90
16384;DHT22;8301;51.440;6.610;2022-10-30T15:31:04;19.30;99.90
16384;DHT22;8301;51.440;6.610;2022-10-30T15:33:36;19.20;99.90
16384;DHT22;8301;51.440;6.610;2022-10-30T15:36:02;19.10;99.90
16384;DHT22;8301;51.440;6.610;2022-10-30T15:38:29;19.00;99.90
16384;DHT22;8301;51.440;6.610;2022-10-30T15:41:04;19.00;99.90
16384;DHT22;8301;51.440;6.610;2022-10-30T15:43:29;18.90;99.90
16384;DHT22;8301;51.440;6.610;2022-10-30T15:46:07;18.90;99.90
16384;DHT22;8301;51.440;6.610;2022-10-30T15:51:12;18.80;99.90
16384;DHT22;8301;51.440;6.610;2022-10-30T15:56:18;18.70;99.90
16384;DHT22;8301;51.440;6.610;2022-10-30T15:58:47;18.60;99.90
16384;DHT22;8301;51.440;6.610;2022-10-30T16:01:22;18.50;99.90
16384;DHT22;8301;51.440;6.610;2022-10-30T16:03:51;18.40;99.90
16384;DHT22;8301;51.440;6.610;2022-10-30T16:06:17;18.30;99.90
16384;DHT22;8301;51.440;6.610;2022-10-30T16:08:45;18.30;99.90
16384;DHT22;8301;51.440;6.610;2022-10-30T16:11:12;18.20;99.90
16384;DHT22;8301;51.440;6.610;2022-10-30T16:13:40;18.10;99.90
16384;DHT22;8301;51.440;6.610;2022-10-30T16:16:12;18.00;99.90
16384;DHT22;8301;51.440;6.610;2022-10-30T16:18:39;17.80;99.90
16384;DHT22;8301;51.440;6.610;2022-10-30T16:21:07;17.70;99.90
16384;DHT22;8301;51.440;6.610;2022-10-30T16:23:38;17.50;99.90
16384;DHT22;8301;51.440;6.610;2022-10-30T16:26:05;17.40;99.90
16384;DHT22;8301;51.440;6.610;2022-10-30T16:28:36;17.40;99.90
16384;DHT22;8301;51.440;6.610;2022-10-30T16:31:07;17.30;99.90
16384;DHT22;8301;51.440;6.610;2022-10-30T16:33:36;17.30;99.90
16384;DHT22;8301;51.440;6.610;2022-10-30T16:36:03;17.20;99.90
16384;DHT22;8301;51.440;6.610;2022-10-30T16:38:33;17.20;99.90
16384;DHT22;8301;51.440;6.610;2022-10-30T16:41:00;17.00;99.90
16384;DHT22;8301;51.440;6.610;2022-10-30T16:43:32;16.90;99.90
16384;DHT22;8301;51.440;6.610;2022-10-30T16:48:43;16.80;99.90
16384;DHT22;8301;51.440;6.610;2022-10-30T16:51:12;16.70;99.90
16384;DHT22;8301;51.440;6.610;2022-10-30T16:53:38;16.70;99.90
16384;DHT22;8301;51.440;6.610;2022-10-30T16:56:05;16.70;99.90
16384;DHT22;8301;51.440;6.610;2022-10-30T16:58:33;16.60;99.90
16384;DHT22;8301;51.440;6.610;2022-10-30T17:01:01;16.50;99.90
16384;DHT22;8301;51.440;6.610;2022-10-30T17:03:28;16.40;99.90
16384;DHT22;8301;51.440;6.610;2022-10-30T17:06:03;16.30;99.90
16384;DHT22;8301;51.440;6.610;2022-10-30T17:08:27;16.10;99.90
16384;DHT22;8301;51.440;6.610;2022-10-30T17:18:47;15.60;99.90
16384;DHT22;8301;51.440;6.610;2022-10-30T17:21:16;15.70;99.90
16384;DHT22;8301;51.440;6.610;2022-10-30T17:23:44;15.70;99.90
16384;DHT22;8301;51.440;6.610;2022-10-30T17:26:11;15.70;99.90
16384;DHT22;8301;51.440;6.610;2022-10-30T17:28:39;15.70;99.90
16384;DHT22;8301;51.440;6.610;2022-10-30T17:31:19;15.70;99.90
16384;DHT22;8301;51.440;6.610;2022-10-30T17:36:35;15.70;99.90
16384;DHT22;8301;51.440;6.610;2022-10-30T17:39:01;15.80;99.90
16384;DHT22;8301;51.440;6.610;2022-10-30T17:41:28;15.80;99.90
16384;DHT22;8301;51.440;6.610;2022-10-30T17:43:55;15.80;99.90
16384;DHT22;8301;51.440;6.610;2022-10-30T17:46:22;15.80;99.90
16384;DHT22;8301;51.440;6.610;2022-10-30T17:48:49;15.80;99.90
16384;DHT22;8301;51.440;6.610;2022-10-30T17:51:16;15.80;99.90
16384;DHT22;8301;51.440;6.610;2022-10-30T17:53:45;15.80;99.90
16384;DHT22;8301;51.440;6.610;2022-10-30T17:56:17;15.80;99.90
16384;DHT22;8301;51.440;6.610;2022-10-30T17:58:44;15.80;99.90
16384;DHT22;8301;51.440;6.610;2022-10-30T18:01:19;15.80;99.90
16384;DHT22;8301;51.440;6.610;2022-10-30T18:03:47;15.80;99.90
16384;DHT22;8301;51.440;6.610;2022-10-30T18:06:25;15.80;99.90
16384;DHT22;8301;51.440;6.610;2022-10-30T18:08:48;15.70;99.90
16384;DHT22;8301;51.440;6.610;2022-10-30T18:11:16;15.70;99.90
16384;DHT22;8301;51.440;6.610;2022-10-30T18:13:45;15.60;99.90